Prior Lake, MN

5:35 PM CDT on May 05, 2015 (GMT -0500)
KMNPRIOR9 | | Change Station
CLOSE
Current Station
Personal Weather Station
Location: Credit River, MN
Elevation: 935 ft
Nearby Weather Stations

Elev 935 ft 44.70 °N, 93.39 °W | Updated 9 seconds ago

Overcast
Overcast
62.2 °F
Feels Like 62.2 °F
N
6.0
Wind Variable Wind from East
Gusts 15.0 mph

Today
High -- | Low -- °F
--% Chance of Precip.
Yesterday
High -- | Low -- °F
Precip. -- in
5:58 AM 8:23 PM
Full, 97% visible
Pressure 30.12 in
Visibility 10.0 miles
Clouds Few 4000 ft
Mostly Cloudy 4800 ft
Mostly Cloudy 12000 ft
Dew Point 62 °F
Humidity 100%
Rainfall 0.00 in
Snow Depth Not available.
UV 0.0 out of 12
Pollen 8.50 out of 12
Air Quality Not available.
Flu Activity Sporadic
METAR KFCM 052153Z 13015KT 10SM FEW040 BKN048 BKN120 18/10 A3012 RMK AO2 SLP200 T01830100

More Conditions Fewer Conditions

Pressure 30.12 in
Visibility 10.0 miles
Clouds Few 4000 ft
Mostly Cloudy 4800 ft
Mostly Cloudy 12000 ft
Dew Point 62 °F
Humidity 100%
Rainfall 0.00 in
Snow Depth Not available.
UV 0.0 out of 12
Pollen 8.50 out of 12
Air Quality Not available.
Flu Activity Sporadic
METAR KFCM 052153Z 13015KT 10SM FEW040 BKN048 BKN120 18/10 A3012 RMK AO2 SLP200 T01830100

More Conditions Fewer Conditions

10-Day Weather Forecast

Almanac

Astronomy

May. 05, 2015 Rise Set
Actual Time
Civil Twilight
Nautical Twilight
Astronomical Twilight
Moon
Length of Visible Light
Length of Day
Tomorrow will be .
, % of the Moon is Illuminated

Today's Extremes

State Highs State Lows

Community

WunderPhotos

Upload Photos

1,818,998 photos uploaded!

WunderBlogs® & News

Nearby

Air Quality

  Air Quality AQ Index Pollutant
Not available.

Snow Depth

Station Depth Elevation

Earthquake Activity

City Distance Mag. Time & Date
Minimum magnitude displayed is 2.5.

Coastal Water Temperatures

Place Temperature

Stations

Nearby Weather Stations

Station Location Temp. Windchill Dew Point Humidity Wind Precip. Elev Updated Type